sensor_id;sensor_type;location;lat;lon;timestamp;temperature;humidity
59651;DHT22;45954;49.768;8.636;2023-04-01T00:01:04;11.40;99.90
59651;DHT22;45954;49.768;8.636;2023-04-01T00:03:30;11.40;99.90
59651;DHT22;45954;49.768;8.636;2023-04-01T00:06:00;11.50;99.90
59651;DHT22;45954;49.768;8.636;2023-04-01T00:08:27;11.50;99.90
59651;DHT22;45954;49.768;8.636;2023-04-01T00:10:53;11.50;99.90
59651;DHT22;45954;49.768;8.636;2023-04-01T00:13:19;11.50;99.90
59651;DHT22;45954;49.768;8.636;2023-04-01T00:15:45;11.60;99.90
59651;DHT22;45954;49.768;8.636;2023-04-01T00:18:12;11.50;99.90
59651;DHT22;45954;49.768;8.636;2023-04-01T00:20:38;11.60;99.90
59651;DHT22;45954;49.768;8.636;2023-04-01T00:23:04;11.70;99.90
59651;DHT22;45954;49.768;8.636;2023-04-01T00:25:31;11.70;99.90
59651;DHT22;45954;49.768;8.636;2023-04-01T00:27:56;11.60;99.90
59651;DHT22;45954;49.768;8.636;2023-04-01T00:30:22;11.60;99.90
59651;DHT22;45954;49.768;8.636;2023-04-01T00:32:52;11.60;99.90
59651;DHT22;45954;49.768;8.636;2023-04-01T00:35:19;11.50;99.90
59651;DHT22;45954;49.768;8.636;2023-04-01T00:37:45;11.60;99.90
59651;DHT22;45954;49.768;8.636;2023-04-01T00:40:27;11.50;99.90
59651;DHT22;45954;49.768;8.636;2023-04-01T00:42:55;11.50;99.90
59651;DHT22;45954;49.768;8.636;2023-04-01T00:45:42;11.50;99.90
59651;DHT22;45954;49.768;8.636;2023-04-01T00:48:13;11.60;99.90
59651;DHT22;45954;49.768;8.636;2023-04-01T00:50:46;11.50;99.90
59651;DHT22;45954;49.768;8.636;2023-04-01T00:53:20;11.50;99.90
59651;DHT22;45954;49.768;8.636;2023-04-01T00:56:15;11.50;99.90
59651;DHT22;45954;49.768;8.636;2023-04-01T00:59:04;11.50;99.90
59651;DHT22;45954;49.768;8.636;2023-04-01T01:01:35;11.50;99.90
59651;DHT22;45954;49.768;8.636;2023-04-01T01:04:01;11.60;99.90
59651;DHT22;45954;49.768;8.636;2023-04-01T01:06:39;11.60;99.90
59651;DHT22;45954;49.768;8.636;2023-04-01T01:15:55;11.60;99.90
59651;DHT22;45954;49.768;8.636;2023-04-01T01:18:39;11.60;99.90
59651;DHT22;45954;49.768;8.636;2023-04-01T01:21:57;11.50;99.90
59651;DHT22;45954;49.768;8.636;2023-04-01T01:27:49;11.80;99.90
59651;DHT22;45954;49.768;8.636;2023-04-01T01:30:28;11.80;99.90
59651;DHT22;45954;49.768;8.636;2023-04-01T01:33:15;11.70;99.90
59651;DHT22;45954;49.768;8.636;2023-04-01T01:35:54;11.70;99.90
59651;DHT22;45954;49.768;8.636;2023-04-01T01:38:26;11.70;99.90
59651;DHT22;45954;49.768;8.636;2023-04-01T01:40:56;11.70;99.90
59651;DHT22;45954;49.768;8.636;2023-04-01T01:43:31;11.70;99.90
59651;DHT22;45954;49.768;8.636;2023-04-01T01:46:05;11.50;99.90
59651;DHT22;45954;49.768;8.636;2023-04-01T01:48:36;11.60;99.90
59651;DHT22;45954;49.768;8.636;2023-04-01T01:51:05;11.50;99.90
59651;DHT22;45954;49.768;8.636;2023-04-01T01:53:31;11.60;99.90
59651;DHT22;45954;49.768;8.636;2023-04-01T01:55:56;11.60;99.90
59651;DHT22;45954;49.768;8.636;2023-04-01T02:01:10;11.50;99.90
59651;DHT22;45954;49.768;8.636;2023-04-01T02:03:40;11.50;99.90
59651;DHT22;45954;49.768;8.636;2023-04-01T02:06:12;11.50;99.90
59651;DHT22;45954;49.768;8.636;2023-04-01T02:09:10;11.60;99.90
59651;DHT22;45954;49.768;8.636;2023-04-01T02:11:51;11.60;99.90
59651;DHT22;45954;49.768;8.636;2023-04-01T02:14:26;11.60;99.90
59651;DHT22;45954;49.768;8.636;2023-04-01T02:17:04;11.60;99.90
59651;DHT22;45954;49.768;8.636;2023-04-01T02:19:38;11.60;99.90
59651;DHT22;45954;49.768;8.636;2023-04-01T02:22:10;11.60;99.90
59651;DHT22;45954;49.768;8.636;2023-04-01T02:24:41;11.40;99.90
59651;DHT22;45954;49.768;8.636;2023-04-01T02:27:09;11.40;99.90
59651;DHT22;45954;49.768;8.636;2023-04-01T02:29:36;11.50;99.90
59651;DHT22;45954;49.768;8.636;2023-04-01T02:32:03;11.40;99.90
59651;DHT22;45954;49.768;8.636;2023-04-01T02:34:30;11.40;99.90
59651;DHT22;45954;49.768;8.636;2023-04-01T02:36:57;11.50;99.90
59651;DHT22;45954;49.768;8.636;2023-04-01T02:39:23;11.40;99.90
59651;DHT22;45954;49.768;8.636;2023-04-01T02:41:51;11.40;99.90
59651;DHT22;45954;49.768;8.636;2023-04-01T02:44:16;11.50;99.90
59651;DHT22;45954;49.768;8.636;2023-04-01T02:46:43;11.50;99.90
59651;DHT22;45954;49.768;8.636;2023-04-01T02:49:09;11.50;99.90
59651;DHT22;45954;49.768;8.636;2023-04-01T02:51:35;11.60;99.90
59651;DHT22;45954;49.768;8.636;2023-04-01T02:54:01;11.40;99.90
59651;DHT22;45954;49.768;8.636;2023-04-01T02:56:27;11.40;99.90
59651;DHT22;45954;49.768;8.636;2023-04-01T02:58:54;11.40;99.90
59651;DHT22;45954;49.768;8.636;2023-04-01T03:01:21;11.30;99.90
59651;DHT22;45954;49.768;8.636;2023-04-01T03:03:47;11.30;99.90
59651;DHT22;45954;49.768;8.636;2023-04-01T03:06:15;11.30;99.90
59651;DHT22;45954;49.768;8.636;2023-04-01T03:08:41;11.30;99.90
59651;DHT22;45954;49.768;8.636;2023-04-01T03:11:09;11.20;99.90
59651;DHT22;45954;49.768;8.636;2023-04-01T03:13:36;11.20;99.90
59651;DHT22;45954;49.768;8.636;2023-04-01T03:16:02;11.30;99.90
59651;DHT22;45954;49.768;8.636;2023-04-01T03:18:28;11.20;99.90
59651;DHT22;45954;49.768;8.636;2023-04-01T03:20:55;11.20;99.90
59651;DHT22;45954;49.768;8.636;2023-04-01T03:23:20;11.20;99.90
59651;DHT22;45954;49.768;8.636;2023-04-01T03:25:47;11.20;99.90
59651;DHT22;45954;49.768;8.636;2023-04-01T03:28:14;11.10;99.90
59651;DHT22;45954;49.768;8.636;2023-04-01T03:30:39;11.00;99.90
59651;DHT22;45954;49.768;8.636;2023-04-01T03:33:06;11.10;99.90
59651;DHT22;45954;49.768;8.636;2023-04-01T03:35:32;11.10;99.90
59651;DHT22;45954;49.768;8.636;2023-04-01T03:37:58;11.10;99.90
59651;DHT22;45954;49.768;8.636;2023-04-01T03:40:24;11.00;99.90
59651;DHT22;45954;49.768;8.636;2023-04-01T03:42:52;11.10;99.90
59651;DHT22;45954;49.768;8.636;2023-04-01T03:45:18;11.00;99.90
59651;DHT22;45954;49.768;8.636;2023-04-01T03:47:44;11.00;99.90
59651;DHT22;45954;49.768;8.636;2023-04-01T03:50:10;11.00;99.90
59651;DHT22;45954;49.768;8.636;2023-04-01T03:52:37;11.00;99.90
59651;DHT22;45954;49.768;8.636;2023-04-01T03:55:03;11.10;99.90
59651;DHT22;45954;49.768;8.636;2023-04-01T03:57:31;11.00;99.90
59651;DHT22;45954;49.768;8.636;2023-04-01T03:59:57;11.00;99.90
59651;DHT22;45954;49.768;8.636;2023-04-01T04:02:23;11.00;99.90
59651;DHT22;45954;49.768;8.636;2023-04-01T04:04:49;11.00;99.90
59651;DHT22;45954;49.768;8.636;2023-04-01T04:07:14;11.00;99.90
59651;DHT22;45954;49.768;8.636;2023-04-01T04:09:40;11.00;99.90
59651;DHT22;45954;49.768;8.636;2023-04-01T04:12:06;11.00;99.90
59651;DHT22;45954;49.768;8.636;2023-04-01T04:14:32;11.10;99.90
59651;DHT22;45954;49.768;8.636;2023-04-01T04:16:58;11.10;99.90
59651;DHT22;45954;49.768;8.636;2023-04-01T04:19:24;11.00;99.90
59651;DHT22;45954;49.768;8.636;2023-04-01T04:21:50;11.00;99.90
59651;DHT22;45954;49.768;8.636;2023-04-01T04:24:16;10.90;99.90
59651;DHT22;45954;49.768;8.636;2023-04-01T04:26:42;10.90;99.90
59651;DHT22;45954;49.768;8.636;2023-04-01T04:29:07;11.00;99.90
59651;DHT22;45954;49.768;8.636;2023-04-01T04:31:33;11.10;99.90
59651;DHT22;45954;49.768;8.636;2023-04-01T04:34:00;11.00;99.90
59651;DHT22;45954;49.768;8.636;2023-04-01T04:36:27;11.10;99.90
59651;DHT22;45954;49.768;8.636;2023-04-01T04:38:53;11.00;99.90
59651;DHT22;45954;49.768;8.636;2023-04-01T04:41:20;11.00;99.90
59651;DHT22;45954;49.768;8.636;2023-04-01T04:43:56;11.00;99.90
59651;DHT22;45954;49.768;8.636;2023-04-01T04:46:23;11.00;99.90
59651;DHT22;45954;49.768;8.636;2023-04-01T04:48:49;11.00;99.90
59651;DHT22;45954;49.768;8.636;2023-04-01T04:51:16;11.10;99.90
59651;DHT22;45954;49.768;8.636;2023-04-01T04:53:44;11.10;99.90
59651;DHT22;45954;49.768;8.636;2023-04-01T04:56:10;11.10;99.90
59651;DHT22;45954;49.768;8.636;2023-04-01T04:58:37;11.00;99.90
59651;DHT22;45954;49.768;8.636;2023-04-01T05:01:11;11.10;99.90
59651;DHT22;45954;49.768;8.636;2023-04-01T05:03:38;11.10;99.90
59651;DHT22;45954;49.768;8.636;2023-04-01T05:06:06;11.10;99.90
59651;DHT22;45954;49.768;8.636;2023-04-01T05:08:34;11.00;99.90
59651;DHT22;45954;49.768;8.636;2023-04-01T05:11:02;11.00;99.90
59651;DHT22;45954;49.768;8.636;2023-04-01T05:13:28;11.10;99.90
59651;DHT22;45954;49.768;8.636;2023-04-01T05:15:54;11.10;99.90
59651;DHT22;45954;49.768;8.636;2023-04-01T05:18:21;11.00;99.90
59651;DHT22;45954;49.768;8.636;2023-04-01T05:20:51;11.10;99.90
59651;DHT22;45954;49.768;8.636;2023-04-01T05:23:20;11.10;99.90
59651;DHT22;45954;49.768;8.636;2023-04-01T05:25:49;11.10;99.90
59651;DHT22;45954;49.768;8.636;2023-04-01T05:28:18;11.20;99.90
59651;DHT22;45954;49.768;8.636;2023-04-01T05:30:46;11.20;99.90
59651;DHT22;45954;49.768;8.636;2023-04-01T05:33:13;11.10;99.90
59651;DHT22;45954;49.768;8.636;2023-04-01T05:35:39;11.20;99.90
59651;DHT22;45954;49.768;8.636;2023-04-01T05:38:06;11.10;99.90
59651;DHT22;45954;49.768;8.636;2023-04-01T05:40:32;11.00;99.90
59651;DHT22;45954;49.768;8.636;2023-04-01T05:42:59;11.00;99.90
59651;DHT22;45954;49.768;8.636;2023-04-01T05:45:26;11.00;99.90
59651;DHT22;45954;49.768;8.636;2023-04-01T05:47:52;11.00;99.90
59651;DHT22;45954;49.768;8.636;2023-04-01T05:50:18;11.10;99.90
59651;DHT22;45954;49.768;8.636;2023-04-01T05:52:44;11.10;99.90
59651;DHT22;45954;49.768;8.636;2023-04-01T05:55:10;10.90;99.90
59651;DHT22;45954;49.768;8.636;2023-04-01T05:57:36;11.00;99.90
59651;DHT22;45954;49.768;8.636;2023-04-01T06:00:03;10.90;99.90
59651;DHT22;45954;49.768;8.636;2023-04-01T06:02:29;11.10;99.90
59651;DHT22;45954;49.768;8.636;2023-04-01T06:05:19;11.20;99.90
59651;DHT22;45954;49.768;8.636;2023-04-01T06:07:47;11.20;99.90
59651;DHT22;45954;49.768;8.636;2023-04-01T06:10:20;11.10;99.90
59651;DHT22;45954;49.768;8.636;2023-04-01T06:13:12;11.20;99.90
59651;DHT22;45954;49.768;8.636;2023-04-01T06:19:18;11.10;99.90
59651;DHT22;45954;49.768;8.636;2023-04-01T06:22:03;11.20;99.90
59651;DHT22;45954;49.768;8.636;2023-04-01T06:37:02;11.10;99.90
59651;DHT22;45954;49.768;8.636;2023-04-01T06:39:55;11.00;99.90
59651;DHT22;45954;49.768;8.636;2023-04-01T06:42:36;11.10;99.90
59651;DHT22;45954;49.768;8.636;2023-04-01T06:51:17;11.00;99.90
59651;DHT22;45954;49.768;8.636;2023-04-01T06:54:03;11.10;99.90
59651;DHT22;45954;49.768;8.636;2023-04-01T06:56:33;11.10;99.90
59651;DHT22;45954;49.768;8.636;2023-04-01T07:01:53;11.30;99.90
59651;DHT22;45954;49.768;8.636;2023-04-01T07:04:33;11.10;99.90
59651;DHT22;45954;49.768;8.636;2023-04-01T07:07:08;11.10;99.90
59651;DHT22;45954;49.768;8.636;2023-04-01T07:09:40;11.20;99.90
59651;DHT22;45954;49.768;8.636;2023-04-01T07:18:02;10.90;99.90
59651;DHT22;45954;49.768;8.636;2023-04-01T07:20:36;11.00;99.90
59651;DHT22;45954;49.768;8.636;2023-04-01T07:23:06;11.10;99.90
59651;DHT22;45954;49.768;8.636;2023-04-01T07:25:41;11.10;99.90
59651;DHT22;45954;49.768;8.636;2023-04-01T07:28:13;11.10;99.90
59651;DHT22;45954;49.768;8.636;2023-04-01T07:40:10;11.10;99.90
59651;DHT22;45954;49.768;8.636;2023-04-01T07:43:17;11.10;99.90
59651;DHT22;45954;49.768;8.636;2023-04-01T07:46:13;11.10;99.90
59651;DHT22;45954;49.768;8.636;2023-04-01T07:48:57;11.20;99.90
59651;DHT22;45954;49.768;8.636;2023-04-01T07:52:00;11.30;99.90
59651;DHT22;45954;49.768;8.636;2023-04-01T07:54:44;11.30;99.90
59651;DHT22;45954;49.768;8.636;2023-04-01T07:57:33;11.50;99.90
59651;DHT22;45954;49.768;8.636;2023-04-01T08:00:23;11.40;99.90
59651;DHT22;45954;49.768;8.636;2023-04-01T08:03:17;11.50;99.90
59651;DHT22;45954;49.768;8.636;2023-04-01T08:06:06;11.50;99.90
59651;DHT22;45954;49.768;8.636;2023-04-01T08:08:52;11.50;99.90
59651;DHT22;45954;49.768;8.636;2023-04-01T08:18:04;11.50;99.90
59651;DHT22;45954;49.768;8.636;2023-04-01T08:20:28;11.50;99.90
59651;DHT22;45954;49.768;8.636;2023-04-01T08:23:15;11.50;99.90
59651;DHT22;45954;49.768;8.636;2023-04-01T08:26:14;11.50;99.90
59651;DHT22;45954;49.768;8.636;2023-04-01T08:29:16;11.30;99.90
59651;DHT22;45954;49.768;8.636;2023-04-01T08:31:58;11.40;99.90
59651;DHT22;45954;49.768;8.636;2023-04-01T08:34:38;11.30;99.90
59651;DHT22;45954;49.768;8.636;2023-04-01T08:37:19;11.30;99.90
59651;DHT22;45954;49.768;8.636;2023-04-01T08:39:54;11.30;99.90
59651;DHT22;45954;49.768;8.636;2023-04-01T08:45:53;11.20;99.90
59651;DHT22;45954;49.768;8.636;2023-04-01T09:01:34;11.30;99.90
59651;DHT22;45954;49.768;8.636;2023-04-01T09:04:22;11.40;99.90
59651;DHT22;45954;49.768;8.636;2023-04-01T09:10:25;11.40;99.90
59651;DHT22;45954;49.768;8.636;2023-04-01T09:19:27;11.50;99.90
59651;DHT22;45954;49.768;8.636;2023-04-01T09:28:10;11.40;99.90
59651;DHT22;45954;49.768;8.636;2023-04-01T09:31:23;11.40;99.90
59651;DHT22;45954;49.768;8.636;2023-04-01T09:36:44;11.60;99.90
59651;DHT22;45954;49.768;8.636;2023-04-01T09:39:26;11.60;99.90
59651;DHT22;45954;49.768;8.636;2023-04-01T09:44:32;11.30;99.90
59651;DHT22;45954;49.768;8.636;2023-04-01T09:57:53;11.10;99.90
59651;DHT22;45954;49.768;8.636;2023-04-01T10:00:48;11.10;99.90
59651;DHT22;45954;49.768;8.636;2023-04-01T10:27:31;11.50;99.90
59651;DHT22;45954;49.768;8.636;2023-04-01T10:50:56;11.60;99.90
59651;DHT22;45954;49.768;8.636;2023-04-01T11:03:39;11.60;99.90
59651;DHT22;45954;49.768;8.636;2023-04-01T11:07:10;11.60;99.90
59651;DHT22;45954;49.768;8.636;2023-04-01T11:17:22;11.50;99.90
59651;DHT22;45954;49.768;8.636;2023-04-01T11:20:44;11.50;99.90
59651;DHT22;45954;49.768;8.636;2023-04-01T11:23:22;11.60;99.90
59651;DHT22;45954;49.768;8.636;2023-04-01T11:29:38;11.50;99.90
59651;DHT22;45954;49.768;8.636;2023-04-01T11:32:24;11.60;99.90
59651;DHT22;45954;49.768;8.636;2023-04-01T11:35:23;11.40;99.90
59651;DHT22;45954;49.768;8.636;2023-04-01T11:44:20;11.60;99.90
59651;DHT22;45954;49.768;8.636;2023-04-01T11:49:53;11.60;99.90
59651;DHT22;45954;49.768;8.636;2023-04-01T11:52:32;11.40;99.90
59651;DHT22;45954;49.768;8.636;2023-04-01T11:55:28;11.40;99.90
59651;DHT22;45954;49.768;8.636;2023-04-01T12:10:24;11.50;99.90
59651;DHT22;45954;49.768;8.636;2023-04-01T12:13:31;11.60;99.90
59651;DHT22;45954;49.768;8.636;2023-04-01T12:16:20;11.50;99.90
59651;DHT22;45954;49.768;8.636;2023-04-01T12:19:17;11.50;99.90
59651;DHT22;45954;49.768;8.636;2023-04-01T12:22:26;11.40;99.90
59651;DHT22;45954;49.768;8.636;2023-04-01T12:25:19;11.50;99.90
59651;DHT22;45954;49.768;8.636;2023-04-01T12:31:15;11.60;99.90
59651;DHT22;45954;49.768;8.636;2023-04-01T12:43:00;11.70;99.90
59651;DHT22;45954;49.768;8.636;2023-04-01T12:45:34;11.60;99.90
59651;DHT22;45954;49.768;8.636;2023-04-01T12:51:20;11.70;99.90
59651;DHT22;45954;49.768;8.636;2023-04-01T12:54:08;11.70;99.90
59651;DHT22;45954;49.768;8.636;2023-04-01T12:56:54;11.60;99.90
59651;DHT22;45954;49.768;8.636;2023-04-01T13:05:24;11.50;99.90
59651;DHT22;45954;49.768;8.636;2023-04-01T13:17:34;11.60;99.90
59651;DHT22;45954;49.768;8.636;2023-04-01T13:23:28;11.50;99.90
59651;DHT22;45954;49.768;8.636;2023-04-01T13:26:14;11.50;99.90
59651;DHT22;45954;49.768;8.636;2023-04-01T13:29:04;11.50;99.90
59651;DHT22;45954;49.768;8.636;2023-04-01T13:44:38;11.40;99.90
59651;DHT22;45954;49.768;8.636;2023-04-01T13:50:31;11.50;99.90
59651;DHT22;45954;49.768;8.636;2023-04-01T13:56:48;11.50;99.90
59651;DHT22;45954;49.768;8.636;2023-04-01T14:11:25;11.50;99.90
59651;DHT22;45954;49.768;8.636;2023-04-01T14:17:35;11.40;99.90
59651;DHT22;45954;49.768;8.636;2023-04-01T14:29:08;11.40;99.90
59651;DHT22;45954;49.768;8.636;2023-04-01T14:32:02;11.40;99.90
59651;DHT22;45954;49.768;8.636;2023-04-01T14:43:48;11.50;99.90
59651;DHT22;45954;49.768;8.636;2023-04-01T14:52:17;11.70;99.90
59651;DHT22;45954;49.768;8.636;2023-04-01T14:54:51;11.60;99.90
59651;DHT22;45954;49.768;8.636;2023-04-01T14:57:28;11.70;99.90
59651;DHT22;45954;49.768;8.636;2023-04-01T15:00:14;11.70;99.90
59651;DHT22;45954;49.768;8.636;2023-04-01T15:02:45;11.60;99.90
59651;DHT22;45954;49.768;8.636;2023-04-01T15:05:50;11.60;99.90
59651;DHT22;45954;49.768;8.636;2023-04-01T15:08:22;11.60;99.90
59651;DHT22;45954;49.768;8.636;2023-04-01T15:13:53;11.60;99.90
59651;DHT22;45954;49.768;8.636;2023-04-01T15:16:51;11.70;99.90
59651;DHT22;45954;49.768;8.636;2023-04-01T15:23:08;11.70;99.90
59651;DHT22;45954;49.768;8.636;2023-04-01T15:29:47;11.80;99.90
59651;DHT22;45954;49.768;8.636;2023-04-01T15:32:21;11.80;99.90
59651;DHT22;45954;49.768;8.636;2023-04-01T15:34:54;11.70;99.90
59651;DHT22;45954;49.768;8.636;2023-04-01T15:37:53;11.60;99.90
59651;DHT22;45954;49.768;8.636;2023-04-01T15:40:32;11.80;99.90
59651;DHT22;45954;49.768;8.636;2023-04-01T15:43:35;11.90;99.90
59651;DHT22;45954;49.768;8.636;2023-04-01T15:46:41;11.90;99.90
59651;DHT22;45954;49.768;8.636;2023-04-01T15:49:39;11.90;99.90
59651;DHT22;45954;49.768;8.636;2023-04-01T15:52:24;11.90;99.90
59651;DHT22;45954;49.768;8.636;2023-04-01T15:57:50;11.90;99.90
59651;DHT22;45954;49.768;8.636;2023-04-01T16:00:45;11.90;99.90
59651;DHT22;45954;49.768;8.636;2023-04-01T16:03:55;11.90;99.90
59651;DHT22;45954;49.768;8.636;2023-04-01T16:09:31;11.90;99.90
59651;DHT22;45954;49.768;8.636;2023-04-01T16:15:25;12.00;99.90
59651;DHT22;45954;49.768;8.636;2023-04-01T16:24:10;11.90;99.90
59651;DHT22;45954;49.768;8.636;2023-04-01T16:27:04;11.90;99.90
59651;DHT22;45954;49.768;8.636;2023-04-01T16:29:58;11.80;99.90
59651;DHT22;45954;49.768;8.636;2023-04-01T16:32:49;11.80;99.90
59651;DHT22;45954;49.768;8.636;2023-04-01T16:35:37;11.80;99.90
59651;DHT22;45954;49.768;8.636;2023-04-01T16:41:32;11.90;99.90
59651;DHT22;45954;49.768;8.636;2023-04-01T16:44:20;11.90;99.90
59651;DHT22;45954;49.768;8.636;2023-04-01T16:46:59;11.90;99.90
59651;DHT22;45954;49.768;8.636;2023-04-01T16:49:57;11.90;99.90
59651;DHT22;45954;49.768;8.636;2023-04-01T16:53:07;11.90;99.90
59651;DHT22;45954;49.768;8.636;2023-04-01T16:55:50;12.00;99.90
59651;DHT22;45954;49.768;8.636;2023-04-01T16:58:39;12.00;99.90
59651;DHT22;45954;49.768;8.636;2023-04-01T17:01:16;11.90;99.90
59651;DHT22;45954;49.768;8.636;2023-04-01T17:03:53;12.00;99.90
59651;DHT22;45954;49.768;8.636;2023-04-01T17:09:51;12.00;99.90
59651;DHT22;45954;49.768;8.636;2023-04-01T17:12:30;12.00;99.90
59651;DHT22;45954;49.768;8.636;2023-04-01T17:15:21;11.80;99.90
59651;DHT22;45954;49.768;8.636;2023-04-01T17:21:13;11.90;99.90
59651;DHT22;45954;49.768;8.636;2023-04-01T17:23:52;11.80;99.90
59651;DHT22;45954;49.768;8.636;2023-04-01T17:26:38;11.90;99.90
59651;DHT22;45954;49.768;8.636;2023-04-01T17:29:33;12.00;99.90
59651;DHT22;45954;49.768;8.636;2023-04-01T17:32:40;11.90;99.90
59651;DHT22;45954;49.768;8.636;2023-04-01T17:35:42;11.80;99.90
59651;DHT22;45954;49.768;8.636;2023-04-01T17:43:51;11.80;99.90
59651;DHT22;45954;49.768;8.636;2023-04-01T17:47:16;11.90;99.90
59651;DHT22;45954;49.768;8.636;2023-04-01T17:49:38;11.70;99.90
59651;DHT22;45954;49.768;8.636;2023-04-01T18:01:21;11.80;99.90
59651;DHT22;45954;49.768;8.636;2023-04-01T18:10:08;11.70;99.90
59651;DHT22;45954;49.768;8.636;2023-04-01T18:16:16;11.70;99.90
59651;DHT22;45954;49.768;8.636;2023-04-01T18:19:13;11.60;99.90
59651;DHT22;45954;49.768;8.636;2023-04-01T18:21:56;11.50;99.90
59651;DHT22;45954;49.768;8.636;2023-04-01T18:24:54;11.60;99.90
59651;DHT22;45954;49.768;8.636;2023-04-01T18:38:12;11.60;99.90
59651;DHT22;45954;49.768;8.636;2023-04-01T18:41:14;11.50;99.90
59651;DHT22;45954;49.768;8.636;2023-04-01T18:44:18;11.70;99.90
59651;DHT22;45954;49.768;8.636;2023-04-01T18:49:59;11.60;99.90
59651;DHT22;45954;49.768;8.636;2023-04-01T18:52:47;11.60;99.90
59651;DHT22;45954;49.768;8.636;2023-04-01T18:55:34;11.60;99.90
59651;DHT22;45954;49.768;8.636;2023-04-01T18:58:27;11.60;99.90
59651;DHT22;45954;49.768;8.636;2023-04-01T19:01:19;11.70;99.90
59651;DHT22;45954;49.768;8.636;2023-04-01T19:06:35;11.70;99.90
59651;DHT22;45954;49.768;8.636;2023-04-01T19:09:19;11.70;99.90
59651;DHT22;45954;49.768;8.636;2023-04-01T19:15:27;11.80;99.90
59651;DHT22;45954;49.768;8.636;2023-04-01T19:18:45;11.70;99.90
59651;DHT22;45954;49.768;8.636;2023-04-01T19:21:41;11.70;99.90
59651;DHT22;45954;49.768;8.636;2023-04-01T19:27:50;11.70;99.90
59651;DHT22;45954;49.768;8.636;2023-04-01T19:33:36;11.70;99.90
59651;DHT22;45954;49.768;8.636;2023-04-01T19:36:32;11.70;99.90
59651;DHT22;45954;49.768;8.636;2023-04-01T19:45:21;11.70;99.90
59651;DHT22;45954;49.768;8.636;2023-04-01T19:48:15;11.60;99.90
59651;DHT22;45954;49.768;8.636;2023-04-01T19:50:55;11.60;99.90
59651;DHT22;45954;49.768;8.636;2023-04-01T20:05:33;11.50;99.90
59651;DHT22;45954;49.768;8.636;2023-04-01T20:08:15;11.60;99.90
59651;DHT22;45954;49.768;8.636;2023-04-01T20:11:00;11.50;99.90
59651;DHT22;45954;49.768;8.636;2023-04-01T20:14:03;11.30;99.90
59651;DHT22;45954;49.768;8.636;2023-04-01T20:16:50;11.40;99.90
59651;DHT22;45954;49.768;8.636;2023-04-01T20:19:44;11.30;99.90
59651;DHT22;45954;49.768;8.636;2023-04-01T20:22:38;11.30;99.90
59651;DHT22;45954;49.768;8.636;2023-04-01T20:25:48;11.30;99.90
59651;DHT22;45954;49.768;8.636;2023-04-01T20:31:11;11.40;99.90
59651;DHT22;45954;49.768;8.636;2023-04-01T20:34:08;11.50;99.90
59651;DHT22;45954;49.768;8.636;2023-04-01T20:37:00;11.50;99.90
59651;DHT22;45954;49.768;8.636;2023-04-01T20:42:53;11.50;99.90
59651;DHT22;45954;49.768;8.636;2023-04-01T20:45:47;11.50;99.90
59651;DHT22;45954;49.768;8.636;2023-04-01T20:51:22;11.40;99.90
59651;DHT22;45954;49.768;8.636;2023-04-01T20:54:18;11.50;99.90
59651;DHT22;45954;49.768;8.636;2023-04-01T20:57:05;11.40;99.90
59651;DHT22;45954;49.768;8.636;2023-04-01T21:00:31;11.50;99.90
59651;DHT22;45954;49.768;8.636;2023-04-01T21:06:13;11.50;99.90
59651;DHT22;45954;49.768;8.636;2023-04-01T21:08:53;11.50;99.90
59651;DHT22;45954;49.768;8.636;2023-04-01T21:14:49;11.40;99.90
59651;DHT22;45954;49.768;8.636;2023-04-01T21:17:56;11.40;99.90
59651;DHT22;45954;49.768;8.636;2023-04-01T21:20:51;11.50;99.90
59651;DHT22;45954;49.768;8.636;2023-04-01T21:26:26;11.50;99.90
59651;DHT22;45954;49.768;8.636;2023-04-01T21:29:18;11.30;99.90
59651;DHT22;45954;49.768;8.636;2023-04-01T21:41:49;11.20;99.90
59651;DHT22;45954;49.768;8.636;2023-04-01T21:50:42;11.20;99.90
59651;DHT22;45954;49.768;8.636;2023-04-01T21:53:33;11.20;99.90
59651;DHT22;45954;49.768;8.636;2023-04-01T22:05:37;11.20;99.90
59651;DHT22;45954;49.768;8.636;2023-04-01T22:14:00;11.20;99.90
59651;DHT22;45954;49.768;8.636;2023-04-01T22:19:33;11.20;99.90
59651;DHT22;45954;49.768;8.636;2023-04-01T22:25:18;11.30;99.90
59651;DHT22;45954;49.768;8.636;2023-04-01T22:28:00;11.10;99.90
59651;DHT22;45954;49.768;8.636;2023-04-01T22:31:02;11.10;99.90
59651;DHT22;45954;49.768;8.636;2023-04-01T22:42:44;11.10;99.90
59651;DHT22;45954;49.768;8.636;2023-04-01T22:48:40;10.90;99.90
59651;DHT22;45954;49.768;8.636;2023-04-01T22:51:20;10.90;99.90
59651;DHT22;45954;49.768;8.636;2023-04-01T22:56:56;10.90;99.90
59651;DHT22;45954;49.768;8.636;2023-04-01T22:59:45;10.90;99.90
59651;DHT22;45954;49.768;8.636;2023-04-01T23:05:02;11.00;99.90
59651;DHT22;45954;49.768;8.636;2023-04-01T23:07:52;10.80;99.90
59651;DHT22;45954;49.768;8.636;2023-04-01T23:10:43;10.70;99.90
59651;DHT22;45954;49.768;8.636;2023-04-01T23:13:27;10.70;99.90
59651;DHT22;45954;49.768;8.636;2023-04-01T23:15:56;10.70;99.90
59651;DHT22;45954;49.768;8.636;2023-04-01T23:18:27;10.80;99.90
59651;DHT22;45954;49.768;8.636;2023-04-01T23:23:53;10.90;99.90
59651;DHT22;45954;49.768;8.636;2023-04-01T23:26:52;10.80;99.90
59651;DHT22;45954;49.768;8.636;2023-04-01T23:29:23;10.90;99.90
59651;DHT22;45954;49.768;8.636;2023-04-01T23:31:57;11.00;99.90
59651;DHT22;45954;49.768;8.636;2023-04-01T23:34:35;10.90;99.90
59651;DHT22;45954;49.768;8.636;2023-04-01T23:37:10;10.90;99.90
59651;DHT22;45954;49.768;8.636;2023-04-01T23:39:45;10.80;99.90
59651;DHT22;45954;49.768;8.636;2023-04-01T23:44:58;10.70;99.90
59651;DHT22;45954;49.768;8.636;2023-04-01T23:47:40;10.70;99.90
59651;DHT22;45954;49.768;8.636;2023-04-01T23:50:16;10.80;99.90
59651;DHT22;45954;49.768;8.636;2023-04-01T23:52:48;10.80;99.90
59651;DHT22;45954;49.768;8.636;2023-04-01T23:55:47;10.90;99.90
